sensor_id;sensor_type;location;lat;lon;timestamp;temperature;humidity
15364;DHT22;7781;49.690;6.472;2022-08-21T00:00:29;14.20;99.90
15364;DHT22;7781;49.690;6.472;2022-08-21T00:03:02;14.20;99.90
15364;DHT22;7781;49.690;6.472;2022-08-21T00:05:35;14.10;99.90
15364;DHT22;7781;49.690;6.472;2022-08-21T00:08:06;14.10;99.90
15364;DHT22;7781;49.690;6.472;2022-08-21T00:10:34;14.00;99.90
15364;DHT22;7781;49.690;6.472;2022-08-21T00:13:03;14.00;99.90
15364;DHT22;7781;49.690;6.472;2022-08-21T00:15:34;13.90;99.90
15364;DHT22;7781;49.690;6.472;2022-08-21T00:18:04;13.80;99.90
15364;DHT22;7781;49.690;6.472;2022-08-21T00:20:32;13.80;99.90
15364;DHT22;7781;49.690;6.472;2022-08-21T00:23:01;13.80;99.90
15364;DHT22;7781;49.690;6.472;2022-08-21T00:25:30;13.70;99.90
15364;DHT22;7781;49.690;6.472;2022-08-21T00:27:58;13.60;99.90
15364;DHT22;7781;49.690;6.472;2022-08-21T00:30:28;13.60;99.90
15364;DHT22;7781;49.690;6.472;2022-08-21T00:32:57;13.50;99.90
15364;DHT22;7781;49.690;6.472;2022-08-21T00:35:28;13.40;99.90
15364;DHT22;7781;49.690;6.472;2022-08-21T00:37:57;13.30;99.90
15364;DHT22;7781;49.690;6.472;2022-08-21T00:40:29;13.30;99.90
15364;DHT22;7781;49.690;6.472;2022-08-21T00:42:58;13.20;99.90
15364;DHT22;7781;49.690;6.472;2022-08-21T00:45:27;13.10;99.90
15364;DHT22;7781;49.690;6.472;2022-08-21T00:47:57;13.20;99.90
15364;DHT22;7781;49.690;6.472;2022-08-21T00:50:29;13.10;99.90
15364;DHT22;7781;49.690;6.472;2022-08-21T00:53:00;13.00;99.90
15364;DHT22;7781;49.690;6.472;2022-08-21T00:55:29;13.10;99.90
15364;DHT22;7781;49.690;6.472;2022-08-21T00:58:01;13.10;99.90
15364;DHT22;7781;49.690;6.472;2022-08-21T01:00:33;13.00;99.90
15364;DHT22;7781;49.690;6.472;2022-08-21T01:03:06;13.10;99.90
15364;DHT22;7781;49.690;6.472;2022-08-21T01:05:37;13.10;99.90
15364;DHT22;7781;49.690;6.472;2022-08-21T01:08:06;13.00;99.90
15364;DHT22;7781;49.690;6.472;2022-08-21T01:10:35;13.00;99.90
15364;DHT22;7781;49.690;6.472;2022-08-21T01:13:06;13.00;99.90
15364;DHT22;7781;49.690;6.472;2022-08-21T01:15:36;13.00;99.90
15364;DHT22;7781;49.690;6.472;2022-08-21T01:18:07;12.90;99.90
15364;DHT22;7781;49.690;6.472;2022-08-21T01:20:36;12.80;99.90
15364;DHT22;7781;49.690;6.472;2022-08-21T01:23:06;12.70;99.90
15364;DHT22;7781;49.690;6.472;2022-08-21T01:25:35;12.70;99.90
15364;DHT22;7781;49.690;6.472;2022-08-21T01:28:09;12.60;99.90
15364;DHT22;7781;49.690;6.472;2022-08-21T01:30:39;12.60;99.90
15364;DHT22;7781;49.690;6.472;2022-08-21T01:33:08;12.50;99.90
15364;DHT22;7781;49.690;6.472;2022-08-21T01:35:36;12.50;99.90
15364;DHT22;7781;49.690;6.472;2022-08-21T01:38:06;12.50;99.90
15364;DHT22;7781;49.690;6.472;2022-08-21T01:40:34;12.50;99.90
15364;DHT22;7781;49.690;6.472;2022-08-21T01:43:03;12.50;99.90
15364;DHT22;7781;49.690;6.472;2022-08-21T01:45:31;12.50;99.90
15364;DHT22;7781;49.690;6.472;2022-08-21T01:47:59;12.60;99.90
15364;DHT22;7781;49.690;6.472;2022-08-21T01:50:27;12.60;99.90
15364;DHT22;7781;49.690;6.472;2022-08-21T01:52:55;12.60;99.90
15364;DHT22;7781;49.690;6.472;2022-08-21T01:55:25;12.60;99.90
15364;DHT22;7781;49.690;6.472;2022-08-21T01:57:53;12.60;99.90
15364;DHT22;7781;49.690;6.472;2022-08-21T02:00:22;12.50;99.90
15364;DHT22;7781;49.690;6.472;2022-08-21T02:02:51;12.50;99.90
15364;DHT22;7781;49.690;6.472;2022-08-21T02:05:20;12.40;99.90
15364;DHT22;7781;49.690;6.472;2022-08-21T02:07:50;12.40;99.90
15364;DHT22;7781;49.690;6.472;2022-08-21T02:10:22;12.40;99.90
15364;DHT22;7781;49.690;6.472;2022-08-21T02:12:52;12.40;99.90
15364;DHT22;7781;49.690;6.472;2022-08-21T02:15:20;12.30;99.90
15364;DHT22;7781;49.690;6.472;2022-08-21T02:17:51;12.30;99.90
15364;DHT22;7781;49.690;6.472;2022-08-21T02:20:22;12.30;99.90
15364;DHT22;7781;49.690;6.472;2022-08-21T02:22:50;12.30;99.90
15364;DHT22;7781;49.690;6.472;2022-08-21T02:25:20;12.20;99.90
15364;DHT22;7781;49.690;6.472;2022-08-21T02:27:48;12.20;99.90
15364;DHT22;7781;49.690;6.472;2022-08-21T02:30:22;12.20;99.90
15364;DHT22;7781;49.690;6.472;2022-08-21T02:32:51;12.10;99.90
15364;DHT22;7781;49.690;6.472;2022-08-21T02:35:19;12.10;99.90
15364;DHT22;7781;49.690;6.472;2022-08-21T02:37:51;12.10;99.90
15364;DHT22;7781;49.690;6.472;2022-08-21T02:40:22;12.10;99.90
15364;DHT22;7781;49.690;6.472;2022-08-21T02:42:51;12.00;99.90
15364;DHT22;7781;49.690;6.472;2022-08-21T02:45:20;11.90;99.90
15364;DHT22;7781;49.690;6.472;2022-08-21T02:47:49;12.00;99.90
15364;DHT22;7781;49.690;6.472;2022-08-21T02:50:21;12.00;99.90
15364;DHT22;7781;49.690;6.472;2022-08-21T02:52:52;12.00;99.90
15364;DHT22;7781;49.690;6.472;2022-08-21T02:55:22;12.00;99.90
15364;DHT22;7781;49.690;6.472;2022-08-21T02:57:52;11.90;99.90
15364;DHT22;7781;49.690;6.472;2022-08-21T03:00:22;11.80;99.90
15364;DHT22;7781;49.690;6.472;2022-08-21T03:02:51;11.80;99.90
15364;DHT22;7781;49.690;6.472;2022-08-21T03:05:20;11.80;99.90
15364;DHT22;7781;49.690;6.472;2022-08-21T03:07:48;11.80;99.90
15364;DHT22;7781;49.690;6.472;2022-08-21T03:10:16;11.80;99.90
15364;DHT22;7781;49.690;6.472;2022-08-21T03:12:45;11.70;99.90
15364;DHT22;7781;49.690;6.472;2022-08-21T03:15:15;11.60;99.90
15364;DHT22;7781;49.690;6.472;2022-08-21T03:17:46;11.60;99.90
15364;DHT22;7781;49.690;6.472;2022-08-21T03:20:16;11.60;99.90
15364;DHT22;7781;49.690;6.472;2022-08-21T03:22:44;11.50;99.90
15364;DHT22;7781;49.690;6.472;2022-08-21T03:25:24;11.40;99.90
15364;DHT22;7781;49.690;6.472;2022-08-21T03:28:08;11.40;99.90
15364;DHT22;7781;49.690;6.472;2022-08-21T03:30:39;11.50;99.90
15364;DHT22;7781;49.690;6.472;2022-08-21T03:33:08;11.40;99.90
15364;DHT22;7781;49.690;6.472;2022-08-21T03:35:41;11.40;99.90
15364;DHT22;7781;49.690;6.472;2022-08-21T03:38:11;11.40;99.90
15364;DHT22;7781;49.690;6.472;2022-08-21T03:40:39;11.40;99.90
15364;DHT22;7781;49.690;6.472;2022-08-21T03:43:08;11.40;99.90
15364;DHT22;7781;49.690;6.472;2022-08-21T03:45:37;11.30;99.90
15364;DHT22;7781;49.690;6.472;2022-08-21T03:48:08;11.20;99.90
15364;DHT22;7781;49.690;6.472;2022-08-21T03:50:41;11.20;99.90
15364;DHT22;7781;49.690;6.472;2022-08-21T03:53:11;11.10;99.90
15364;DHT22;7781;49.690;6.472;2022-08-21T03:55:44;11.10;99.90
15364;DHT22;7781;49.690;6.472;2022-08-21T03:58:12;11.10;99.90
15364;DHT22;7781;49.690;6.472;2022-08-21T04:00:44;11.10;99.90
15364;DHT22;7781;49.690;6.472;2022-08-21T04:03:14;11.10;99.90
15364;DHT22;7781;49.690;6.472;2022-08-21T04:05:43;11.10;99.90
15364;DHT22;7781;49.690;6.472;2022-08-21T04:08:13;11.20;99.90
15364;DHT22;7781;49.690;6.472;2022-08-21T04:10:44;11.10;99.90
15364;DHT22;7781;49.690;6.472;2022-08-21T04:13:16;11.10;99.90
15364;DHT22;7781;49.690;6.472;2022-08-21T04:15:45;11.00;99.90
15364;DHT22;7781;49.690;6.472;2022-08-21T04:18:14;11.00;99.90
15364;DHT22;7781;49.690;6.472;2022-08-21T04:20:43;11.10;99.90
15364;DHT22;7781;49.690;6.472;2022-08-21T04:23:16;11.00;99.90
15364;DHT22;7781;49.690;6.472;2022-08-21T04:25:51;11.00;99.90
15364;DHT22;7781;49.690;6.472;2022-08-21T04:28:19;11.00;99.90
15364;DHT22;7781;49.690;6.472;2022-08-21T04:30:49;10.90;99.90
15364;DHT22;7781;49.690;6.472;2022-08-21T04:33:20;10.90;99.90
15364;DHT22;7781;49.690;6.472;2022-08-21T04:35:48;10.80;99.90
15364;DHT22;7781;49.690;6.472;2022-08-21T04:38:17;10.90;99.90
15364;DHT22;7781;49.690;6.472;2022-08-21T04:40:45;10.90;99.90
15364;DHT22;7781;49.690;6.472;2022-08-21T04:43:13;10.90;99.90
15364;DHT22;7781;49.690;6.472;2022-08-21T04:45:43;10.90;99.90
15364;DHT22;7781;49.690;6.472;2022-08-21T04:48:13;10.90;99.90
15364;DHT22;7781;49.690;6.472;2022-08-21T04:50:47;10.90;99.90
15364;DHT22;7781;49.690;6.472;2022-08-21T04:53:20;11.00;99.90
15364;DHT22;7781;49.690;6.472;2022-08-21T04:55:50;11.00;99.90
15364;DHT22;7781;49.690;6.472;2022-08-21T04:58:20;11.00;99.90
15364;DHT22;7781;49.690;6.472;2022-08-21T05:00:52;11.10;99.90
15364;DHT22;7781;49.690;6.472;2022-08-21T05:03:22;11.10;99.90
15364;DHT22;7781;49.690;6.472;2022-08-21T05:05:52;11.10;99.90
15364;DHT22;7781;49.690;6.472;2022-08-21T05:08:21;11.20;99.90
15364;DHT22;7781;49.690;6.472;2022-08-21T05:10:50;11.20;99.90
15364;DHT22;7781;49.690;6.472;2022-08-21T05:13:25;11.20;99.90
15364;DHT22;7781;49.690;6.472;2022-08-21T05:15:53;11.20;99.90
15364;DHT22;7781;49.690;6.472;2022-08-21T05:18:22;11.20;99.90
15364;DHT22;7781;49.690;6.472;2022-08-21T05:20:51;11.20;99.90
15364;DHT22;7781;49.690;6.472;2022-08-21T05:23:20;11.30;99.90
15364;DHT22;7781;49.690;6.472;2022-08-21T05:25:48;11.30;99.90
15364;DHT22;7781;49.690;6.472;2022-08-21T05:28:17;11.30;99.90
15364;DHT22;7781;49.690;6.472;2022-08-21T05:30:46;11.30;99.90
15364;DHT22;7781;49.690;6.472;2022-08-21T05:33:14;11.40;99.90
15364;DHT22;7781;49.690;6.472;2022-08-21T05:35:42;11.40;99.90
15364;DHT22;7781;49.690;6.472;2022-08-21T05:38:12;11.50;99.90
15364;DHT22;7781;49.690;6.472;2022-08-21T05:40:44;11.50;99.90
15364;DHT22;7781;49.690;6.472;2022-08-21T05:43:13;11.50;99.90
15364;DHT22;7781;49.690;6.472;2022-08-21T05:45:42;11.60;99.90
15364;DHT22;7781;49.690;6.472;2022-08-21T05:48:12;11.60;99.90
15364;DHT22;7781;49.690;6.472;2022-08-21T05:50:41;11.70;99.90
15364;DHT22;7781;49.690;6.472;2022-08-21T05:53:11;11.70;99.90
15364;DHT22;7781;49.690;6.472;2022-08-21T05:55:40;11.80;99.90
15364;DHT22;7781;49.690;6.472;2022-08-21T05:58:13;11.90;99.90
15364;DHT22;7781;49.690;6.472;2022-08-21T06:00:41;12.00;99.90
15364;DHT22;7781;49.690;6.472;2022-08-21T06:03:13;12.10;99.90
15364;DHT22;7781;49.690;6.472;2022-08-21T06:05:43;12.20;99.90
15364;DHT22;7781;49.690;6.472;2022-08-21T06:08:14;12.30;99.90
15364;DHT22;7781;49.690;6.472;2022-08-21T06:10:43;12.40;99.90
15364;DHT22;7781;49.690;6.472;2022-08-21T06:13:12;12.50;99.90
15364;DHT22;7781;49.690;6.472;2022-08-21T06:15:40;12.60;99.90
15364;DHT22;7781;49.690;6.472;2022-08-21T06:18:08;12.70;99.90
15364;DHT22;7781;49.690;6.472;2022-08-21T06:20:36;12.90;99.90
15364;DHT22;7781;49.690;6.472;2022-08-21T06:23:05;12.90;99.90
15364;DHT22;7781;49.690;6.472;2022-08-21T06:25:34;13.10;99.90
15364;DHT22;7781;49.690;6.472;2022-08-21T06:28:04;13.20;99.90
15364;DHT22;7781;49.690;6.472;2022-08-21T06:30:32;13.20;99.90
15364;DHT22;7781;49.690;6.472;2022-08-21T06:33:01;13.30;99.90
15364;DHT22;7781;49.690;6.472;2022-08-21T06:35:29;13.40;99.90
15364;DHT22;7781;49.690;6.472;2022-08-21T06:37:58;13.50;99.90
15364;DHT22;7781;49.690;6.472;2022-08-21T06:40:27;13.60;99.90
15364;DHT22;7781;49.690;6.472;2022-08-21T06:42:58;13.70;99.90
15364;DHT22;7781;49.690;6.472;2022-08-21T06:45:27;13.80;99.90
15364;DHT22;7781;49.690;6.472;2022-08-21T06:47:58;13.80;99.90
15364;DHT22;7781;49.690;6.472;2022-08-21T06:50:26;14.00;99.90
15364;DHT22;7781;49.690;6.472;2022-08-21T06:53:03;14.10;99.90
15364;DHT22;7781;49.690;6.472;2022-08-21T06:55:32;14.30;99.90
15364;DHT22;7781;49.690;6.472;2022-08-21T06:58:02;14.40;99.90
15364;DHT22;7781;49.690;6.472;2022-08-21T07:00:31;14.60;99.90
15364;DHT22;7781;49.690;6.472;2022-08-21T07:02:59;14.80;99.90
15364;DHT22;7781;49.690;6.472;2022-08-21T07:05:29;14.90;99.90
15364;DHT22;7781;49.690;6.472;2022-08-21T07:07:57;15.10;99.90
15364;DHT22;7781;49.690;6.472;2022-08-21T07:10:26;15.30;99.90
15364;DHT22;7781;49.690;6.472;2022-08-21T07:12:55;15.40;99.90
15364;DHT22;7781;49.690;6.472;2022-08-21T07:15:29;15.50;99.90
15364;DHT22;7781;49.690;6.472;2022-08-21T07:17:58;15.60;99.90
15364;DHT22;7781;49.690;6.472;2022-08-21T07:20:27;15.70;99.90
15364;DHT22;7781;49.690;6.472;2022-08-21T07:22:56;15.80;99.90
15364;DHT22;7781;49.690;6.472;2022-08-21T07:25:25;16.00;99.90
15364;DHT22;7781;49.690;6.472;2022-08-21T07:27:53;16.10;99.90
15364;DHT22;7781;49.690;6.472;2022-08-21T07:30:22;16.30;99.90
15364;DHT22;7781;49.690;6.472;2022-08-21T07:32:52;16.40;99.90
15364;DHT22;7781;49.690;6.472;2022-08-21T07:35:21;16.50;98.00
15364;DHT22;7781;49.690;6.472;2022-08-21T07:37:50;16.70;94.20
15364;DHT22;7781;49.690;6.472;2022-08-21T07:40:18;16.90;93.20
15364;DHT22;7781;49.690;6.472;2022-08-21T07:42:48;17.10;92.90
15364;DHT22;7781;49.690;6.472;2022-08-21T07:45:19;17.30;96.30
15364;DHT22;7781;49.690;6.472;2022-08-21T07:47:48;17.60;79.90
15364;DHT22;7781;49.690;6.472;2022-08-21T07:50:25;17.80;90.30
15364;DHT22;7781;49.690;6.472;2022-08-21T07:52:53;18.00;56.60
15364;DHT22;7781;49.690;6.472;2022-08-21T07:55:22;18.20;57.40
15364;DHT22;7781;49.690;6.472;2022-08-21T07:57:50;18.40;65.80
15364;DHT22;7781;49.690;6.472;2022-08-21T08:00:20;18.70;41.90
15364;DHT22;7781;49.690;6.472;2022-08-21T08:02:50;19.00;51.40
15364;DHT22;7781;49.690;6.472;2022-08-21T08:05:22;19.20;43.90
15364;DHT22;7781;49.690;6.472;2022-08-21T08:07:52;19.50;29.20
15364;DHT22;7781;49.690;6.472;2022-08-21T08:10:20;19.80;26.90
15364;DHT22;7781;49.690;6.472;2022-08-21T08:12:51;20.00;16.60
15364;DHT22;7781;49.690;6.472;2022-08-21T08:15:23;20.20;9.10
15364;DHT22;7781;49.690;6.472;2022-08-21T08:17:51;20.30;8.90
15364;DHT22;7781;49.690;6.472;2022-08-21T08:20:22;20.60;10.40
15364;DHT22;7781;49.690;6.472;2022-08-21T08:22:53;21.00;1.10
15364;DHT22;7781;49.690;6.472;2022-08-21T08:25:26;21.30;1.00
15364;DHT22;7781;49.690;6.472;2022-08-21T08:28:03;21.60;1.00
15364;DHT22;7781;49.690;6.472;2022-08-21T08:30:42;21.70;1.00
15364;DHT22;7781;49.690;6.472;2022-08-21T08:33:10;21.90;1.00
15364;DHT22;7781;49.690;6.472;2022-08-21T08:35:44;22.00;1.00
15364;DHT22;7781;49.690;6.472;2022-08-21T08:38:16;22.10;1.00
15364;DHT22;7781;49.690;6.472;2022-08-21T08:40:55;22.30;1.00
15364;DHT22;7781;49.690;6.472;2022-08-21T08:43:27;22.40;1.00
15364;DHT22;7781;49.690;6.472;2022-08-21T08:45:58;22.60;1.00
15364;DHT22;7781;49.690;6.472;2022-08-21T08:48:39;22.70;1.00
15364;DHT22;7781;49.690;6.472;2022-08-21T08:51:14;22.90;1.00
15364;DHT22;7781;49.690;6.472;2022-08-21T08:53:49;23.10;1.00
15364;DHT22;7781;49.690;6.472;2022-08-21T08:56:22;23.20;1.00
15364;DHT22;7781;49.690;6.472;2022-08-21T08:58:56;23.20;1.00
15364;DHT22;7781;49.690;6.472;2022-08-21T09:01:28;23.20;1.00
15364;DHT22;7781;49.690;6.472;2022-08-21T09:04:00;23.20;1.00
15364;DHT22;7781;49.690;6.472;2022-08-21T09:06:37;23.30;1.00
15364;DHT22;7781;49.690;6.472;2022-08-21T09:09:22;23.40;1.00
15364;DHT22;7781;49.690;6.472;2022-08-21T09:12:00;23.60;1.00
15364;DHT22;7781;49.690;6.472;2022-08-21T09:14:44;23.60;1.00
15364;DHT22;7781;49.690;6.472;2022-08-21T09:17:24;23.60;1.00
15364;DHT22;7781;49.690;6.472;2022-08-21T09:20:14;23.60;1.00
15364;DHT22;7781;49.690;6.472;2022-08-21T09:22:58;23.80;1.00
15364;DHT22;7781;49.690;6.472;2022-08-21T09:25:33;24.00;1.00
15364;DHT22;7781;49.690;6.472;2022-08-21T09:28:01;24.10;1.00
15364;DHT22;7781;49.690;6.472;2022-08-21T09:30:32;24.20;1.00
15364;DHT22;7781;49.690;6.472;2022-08-21T09:33:00;24.50;1.00
15364;DHT22;7781;49.690;6.472;2022-08-21T09:35:28;24.70;1.00
15364;DHT22;7781;49.690;6.472;2022-08-21T09:37:58;24.60;1.00
15364;DHT22;7781;49.690;6.472;2022-08-21T09:40:36;24.70;1.00
15364;DHT22;7781;49.690;6.472;2022-08-21T09:43:06;25.10;1.00
15364;DHT22;7781;49.690;6.472;2022-08-21T09:45:36;25.30;1.00
15364;DHT22;7781;49.690;6.472;2022-08-21T09:48:13;25.60;1.00
15364;DHT22;7781;49.690;6.472;2022-08-21T09:50:43;25.70;1.00
15364;DHT22;7781;49.690;6.472;2022-08-21T09:53:17;25.80;1.00
15364;DHT22;7781;49.690;6.472;2022-08-21T09:55:52;25.70;1.00
15364;DHT22;7781;49.690;6.472;2022-08-21T09:58:40;25.70;1.00
15364;DHT22;7781;49.690;6.472;2022-08-21T10:01:14;25.70;1.00
15364;DHT22;7781;49.690;6.472;2022-08-21T10:03:43;25.40;1.00
15364;DHT22;7781;49.690;6.472;2022-08-21T10:06:22;25.30;1.00
15364;DHT22;7781;49.690;6.472;2022-08-21T10:08:51;25.30;1.00
15364;DHT22;7781;49.690;6.472;2022-08-21T10:11:24;25.40;1.00
15364;DHT22;7781;49.690;6.472;2022-08-21T10:14:01;25.50;1.00
15364;DHT22;7781;49.690;6.472;2022-08-21T10:16:37;25.50;1.00
15364;DHT22;7781;49.690;6.472;2022-08-21T10:19:16;25.60;1.00
15364;DHT22;7781;49.690;6.472;2022-08-21T10:22:00;25.80;1.00
15364;DHT22;7781;49.690;6.472;2022-08-21T10:24:33;25.90;1.00
15364;DHT22;7781;49.690;6.472;2022-08-21T10:27:12;25.80;1.00
15364;DHT22;7781;49.690;6.472;2022-08-21T10:29:49;25.50;1.00
15364;DHT22;7781;49.690;6.472;2022-08-21T10:32:38;25.30;1.00
15364;DHT22;7781;49.690;6.472;2022-08-21T10:35:13;25.40;1.00
15364;DHT22;7781;49.690;6.472;2022-08-21T10:37:52;25.60;1.00
15364;DHT22;7781;49.690;6.472;2022-08-21T10:40:27;25.70;1.00
15364;DHT22;7781;49.690;6.472;2022-08-21T10:43:20;25.90;1.00
15364;DHT22;7781;49.690;6.472;2022-08-21T10:45:59;26.20;1.00
15364;DHT22;7781;49.690;6.472;2022-08-21T10:48:43;26.40;1.00
15364;DHT22;7781;49.690;6.472;2022-08-21T10:51:16;26.70;1.00
15364;DHT22;7781;49.690;6.472;2022-08-21T10:53:59;26.90;1.00
15364;DHT22;7781;49.690;6.472;2022-08-21T10:56:33;27.10;1.00
15364;DHT22;7781;49.690;6.472;2022-08-21T10:59:22;27.20;1.00
15364;DHT22;7781;49.690;6.472;2022-08-21T11:01:57;27.40;1.00
15364;DHT22;7781;49.690;6.472;2022-08-21T11:04:36;27.10;1.00
15364;DHT22;7781;49.690;6.472;2022-08-21T11:07:19;27.00;1.00
15364;DHT22;7781;49.690;6.472;2022-08-21T11:09:51;26.90;1.00
15364;DHT22;7781;49.690;6.472;2022-08-21T11:12:27;26.90;1.00
15364;DHT22;7781;49.690;6.472;2022-08-21T11:15:11;27.20;1.00
15364;DHT22;7781;49.690;6.472;2022-08-21T11:18:03;27.40;1.00
15364;DHT22;7781;49.690;6.472;2022-08-21T11:20:36;27.60;1.00
15364;DHT22;7781;49.690;6.472;2022-08-21T11:23:11;27.60;1.00
15364;DHT22;7781;49.690;6.472;2022-08-21T11:25:45;27.60;1.00
15364;DHT22;7781;49.690;6.472;2022-08-21T11:28:18;27.30;1.00
15364;DHT22;7781;49.690;6.472;2022-08-21T11:30:57;27.50;1.00
15364;DHT22;7781;49.690;6.472;2022-08-21T11:33:40;27.70;1.00
15364;DHT22;7781;49.690;6.472;2022-08-21T11:36:18;27.70;1.00
15364;DHT22;7781;49.690;6.472;2022-08-21T11:38:56;28.00;1.00
15364;DHT22;7781;49.690;6.472;2022-08-21T11:41:29;28.40;1.00
15364;DHT22;7781;49.690;6.472;2022-08-21T11:44:06;28.70;1.00
15364;DHT22;7781;49.690;6.472;2022-08-21T11:46:42;28.40;1.00
15364;DHT22;7781;49.690;6.472;2022-08-21T11:49:28;28.80;1.00
15364;DHT22;7781;49.690;6.472;2022-08-21T11:52:07;29.10;1.00
15364;DHT22;7781;49.690;6.472;2022-08-21T11:54:39;29.40;1.00
15364;DHT22;7781;49.690;6.472;2022-08-21T11:57:17;29.30;1.00
15364;DHT22;7781;49.690;6.472;2022-08-21T11:59:49;29.80;1.00
15364;DHT22;7781;49.690;6.472;2022-08-21T12:02:24;29.70;1.00
15364;DHT22;7781;49.690;6.472;2022-08-21T12:04:58;29.60;1.00
15364;DHT22;7781;49.690;6.472;2022-08-21T12:07:38;29.90;1.00
15364;DHT22;7781;49.690;6.472;2022-08-21T12:10:10;29.60;1.00
15364;DHT22;7781;49.690;6.472;2022-08-21T12:12:40;30.30;1.00
15364;DHT22;7781;49.690;6.472;2022-08-21T12:15:24;30.90;1.00
15364;DHT22;7781;49.690;6.472;2022-08-21T12:18:06;31.40;1.00
15364;DHT22;7781;49.690;6.472;2022-08-21T12:20:56;31.60;1.00
15364;DHT22;7781;49.690;6.472;2022-08-21T12:23:27;32.10;1.00
15364;DHT22;7781;49.690;6.472;2022-08-21T12:26:17;32.60;1.00
15364;DHT22;7781;49.690;6.472;2022-08-21T12:28:47;32.80;1.00
15364;DHT22;7781;49.690;6.472;2022-08-21T12:31:20;33.00;1.00
15364;DHT22;7781;49.690;6.472;2022-08-21T12:34:00;33.30;1.00
15364;DHT22;7781;49.690;6.472;2022-08-21T12:36:41;33.80;1.00
15364;DHT22;7781;49.690;6.472;2022-08-21T12:39:15;33.70;1.00
15364;DHT22;7781;49.690;6.472;2022-08-21T12:41:50;34.00;1.00
15364;DHT22;7781;49.690;6.472;2022-08-21T12:44:22;33.30;1.00
15364;DHT22;7781;49.690;6.472;2022-08-21T12:46:56;32.50;1.00
15364;DHT22;7781;49.690;6.472;2022-08-21T12:49:30;32.10;1.00
15364;DHT22;7781;49.690;6.472;2022-08-21T12:52:04;32.40;1.00
15364;DHT22;7781;49.690;6.472;2022-08-21T12:54:39;32.70;1.00
15364;DHT22;7781;49.690;6.472;2022-08-21T12:57:18;33.30;1.00
15364;DHT22;7781;49.690;6.472;2022-08-21T12:59:52;33.50;1.00
15364;DHT22;7781;49.690;6.472;2022-08-21T13:02:24;34.00;1.00
15364;DHT22;7781;49.690;6.472;2022-08-21T13:04:56;33.80;1.00
15364;DHT22;7781;49.690;6.472;2022-08-21T13:07:28;33.30;1.00
15364;DHT22;7781;49.690;6.472;2022-08-21T13:09:58;33.40;1.00
15364;DHT22;7781;49.690;6.472;2022-08-21T13:12:27;33.00;1.00
15364;DHT22;7781;49.690;6.472;2022-08-21T13:15:01;32.70;1.00
15364;DHT22;7781;49.690;6.472;2022-08-21T13:17:36;32.20;1.00
15364;DHT22;7781;49.690;6.472;2022-08-21T13:20:18;32.10;1.00
15364;DHT22;7781;49.690;6.472;2022-08-21T13:22:47;32.70;1.00
15364;DHT22;7781;49.690;6.472;2022-08-21T13:25:17;33.00;1.00
15364;DHT22;7781;49.690;6.472;2022-08-21T13:27:58;33.60;1.00
15364;DHT22;7781;49.690;6.472;2022-08-21T13:30:27;33.90;1.00
15364;DHT22;7781;49.690;6.472;2022-08-21T13:32:58;34.10;1.00
15364;DHT22;7781;49.690;6.472;2022-08-21T13:35:35;33.50;1.00
15364;DHT22;7781;49.690;6.472;2022-08-21T13:38:04;34.50;1.00
15364;DHT22;7781;49.690;6.472;2022-08-21T13:40:41;35.00;1.00
15364;DHT22;7781;49.690;6.472;2022-08-21T13:43:11;34.80;1.00
15364;DHT22;7781;49.690;6.472;2022-08-21T13:45:50;34.90;1.00
15364;DHT22;7781;49.690;6.472;2022-08-21T13:48:19;35.00;1.00
15364;DHT22;7781;49.690;6.472;2022-08-21T13:50:51;34.80;1.00
15364;DHT22;7781;49.690;6.472;2022-08-21T13:53:23;34.70;1.00
15364;DHT22;7781;49.690;6.472;2022-08-21T13:55:51;35.10;1.00
15364;DHT22;7781;49.690;6.472;2022-08-21T13:58:26;35.30;1.00
15364;DHT22;7781;49.690;6.472;2022-08-21T14:00:56;35.70;1.00
15364;DHT22;7781;49.690;6.472;2022-08-21T14:03:33;35.40;1.00
15364;DHT22;7781;49.690;6.472;2022-08-21T14:06:11;35.20;1.00
15364;DHT22;7781;49.690;6.472;2022-08-21T14:08:41;35.10;1.00
15364;DHT22;7781;49.690;6.472;2022-08-21T14:11:11;35.30;1.00
15364;DHT22;7781;49.690;6.472;2022-08-21T14:13:42;36.10;1.00
15364;DHT22;7781;49.690;6.472;2022-08-21T14:16:14;36.70;1.00
15364;DHT22;7781;49.690;6.472;2022-08-21T14:18:48;36.80;1.00
15364;DHT22;7781;49.690;6.472;2022-08-21T14:21:29;36.70;1.00
15364;DHT22;7781;49.690;6.472;2022-08-21T14:24:07;36.90;1.00
15364;DHT22;7781;49.690;6.472;2022-08-21T14:26:45;36.80;1.00
15364;DHT22;7781;49.690;6.472;2022-08-21T14:29:15;36.60;1.00
15364;DHT22;7781;49.690;6.472;2022-08-21T14:31:50;36.50;1.00
15364;DHT22;7781;49.690;6.472;2022-08-21T14:34:19;36.80;1.00
15364;DHT22;7781;49.690;6.472;2022-08-21T14:36:49;37.20;1.00
15364;DHT22;7781;49.690;6.472;2022-08-21T14:39:17;37.10;1.00
15364;DHT22;7781;49.690;6.472;2022-08-21T14:41:46;37.00;1.00
15364;DHT22;7781;49.690;6.472;2022-08-21T14:44:16;36.90;1.00
15364;DHT22;7781;49.690;6.472;2022-08-21T14:46:45;37.10;1.00
15364;DHT22;7781;49.690;6.472;2022-08-21T14:49:24;37.30;1.00
15364;DHT22;7781;49.690;6.472;2022-08-21T14:51:56;37.40;1.00
15364;DHT22;7781;49.690;6.472;2022-08-21T14:54:26;37.40;1.00
15364;DHT22;7781;49.690;6.472;2022-08-21T14:56:59;36.10;1.00
15364;DHT22;7781;49.690;6.472;2022-08-21T14:59:28;34.90;1.00
15364;DHT22;7781;49.690;6.472;2022-08-21T15:01:57;34.20;1.00
15364;DHT22;7781;49.690;6.472;2022-08-21T15:04:25;33.70;1.00
15364;DHT22;7781;49.690;6.472;2022-08-21T15:06:53;33.40;1.00
15364;DHT22;7781;49.690;6.472;2022-08-21T15:09:22;32.90;1.00
15364;DHT22;7781;49.690;6.472;2022-08-21T15:11:52;32.50;1.00
15364;DHT22;7781;49.690;6.472;2022-08-21T15:14:23;32.10;1.00
15364;DHT22;7781;49.690;6.472;2022-08-21T15:16:52;31.80;1.00
15364;DHT22;7781;49.690;6.472;2022-08-21T15:19:20;31.50;1.00
15364;DHT22;7781;49.690;6.472;2022-08-21T15:21:49;31.20;1.00
15364;DHT22;7781;49.690;6.472;2022-08-21T15:24:17;31.00;1.00
15364;DHT22;7781;49.690;6.472;2022-08-21T15:26:47;30.90;1.00
15364;DHT22;7781;49.690;6.472;2022-08-21T15:29:15;30.80;1.00
15364;DHT22;7781;49.690;6.472;2022-08-21T15:31:55;30.20;1.00
15364;DHT22;7781;49.690;6.472;2022-08-21T15:34:25;29.80;1.00
15364;DHT22;7781;49.690;6.472;2022-08-21T15:36:54;29.60;1.00
15364;DHT22;7781;49.690;6.472;2022-08-21T15:39:23;29.50;1.00
15364;DHT22;7781;49.690;6.472;2022-08-21T15:42:04;29.40;1.00
15364;DHT22;7781;49.690;6.472;2022-08-21T15:44:38;29.10;1.00
15364;DHT22;7781;49.690;6.472;2022-08-21T15:47:18;29.20;1.00
15364;DHT22;7781;49.690;6.472;2022-08-21T15:49:47;29.10;1.00
15364;DHT22;7781;49.690;6.472;2022-08-21T15:52:17;29.20;1.00
15364;DHT22;7781;49.690;6.472;2022-08-21T15:54:45;29.30;1.00
15364;DHT22;7781;49.690;6.472;2022-08-21T15:57:17;29.40;1.00
15364;DHT22;7781;49.690;6.472;2022-08-21T15:59:48;29.30;1.00
15364;DHT22;7781;49.690;6.472;2022-08-21T16:02:20;29.20;1.00
15364;DHT22;7781;49.690;6.472;2022-08-21T16:04:49;29.00;1.00
15364;DHT22;7781;49.690;6.472;2022-08-21T16:07:17;28.80;1.00
15364;DHT22;7781;49.690;6.472;2022-08-21T16:09:45;28.70;1.00
15364;DHT22;7781;49.690;6.472;2022-08-21T16:12:19;28.60;1.00
15364;DHT22;7781;49.690;6.472;2022-08-21T16:14:48;28.60;1.00
15364;DHT22;7781;49.690;6.472;2022-08-21T16:17:17;28.50;1.00
15364;DHT22;7781;49.690;6.472;2022-08-21T16:19:45;28.50;1.00
15364;DHT22;7781;49.690;6.472;2022-08-21T16:22:13;28.60;1.00
15364;DHT22;7781;49.690;6.472;2022-08-21T16:24:42;28.60;1.00